Time;durP1;ratioP1;P1;durP2;ratioP2;P2;SDS_P1;SDS_P2;PMS_P1;PMS_P2;Temp;Humidity;BMP_temperature;BMP_pressure;BME280_temperature;BME280_humidity;BME280_pressure;Samples;Min_cycle;Max_cycle;Signal;HPM_P1;HPM_P2
2022/08/19 00:00:04;;;;;;;5.72;5.32;;;25.40;99.90;;;;;;4180272;28;20262;-71
2022/08/19 00:02:08;;;;;;;5.30;4.80;;;25.40;99.90;;;;;;4179971;28;20281;-71
2022/08/19 00:04:13;;;;;;;5.53;5.03;;;25.40;99.90;;;;;;4178258;28;20235;-71
2022/08/19 00:06:17;;;;;;;5.13;4.72;;;25.40;99.90;;;;;;4180156;28;20211;-71
2022/08/19 00:08:19;;;;;;;5.80;5.30;;;25.40;99.90;;;;;;4179638;28;20220;-71
2022/08/19 00:10:23;;;;;;;5.50;5.10;;;25.40;99.90;;;;;;4177887;28;20236;-72
2022/08/19 00:12:26;;;;;;;5.40;5.00;;;25.40;99.90;;;;;;4180337;28;20219;-71
2022/08/19 00:14:31;;;;;;;5.72;5.25;;;25.40;99.90;;;;;;4180075;28;20225;-71
2022/08/19 00:16:33;;;;;;;6.18;5.60;;;25.40;99.90;;;;;;4180020;28;20624;-71
2022/08/19 00:18:37;;;;;;;6.32;5.82;;;25.40;99.90;;;;;;4179759;28;20618;-71
2022/08/19 00:20:40;;;;;;;5.90;5.45;;;25.30;99.90;;;;;;4176580;28;20216;-71
2022/08/19 00:22:42;;;;;;;5.55;5.07;;;25.30;99.90;;;;;;4172506;28;20660;-71
2022/08/19 00:24:45;;;;;;;5.85;5.35;;;25.30;99.90;;;;;;4179863;28;20277;-71
2022/08/19 00:26:47;;;;;;;6.45;5.90;;;25.30;99.90;;;;;;4179667;28;20211;-72
2022/08/19 00:28:49;;;;;;;5.90;5.40;;;25.30;99.90;;;;;;4174781;28;20285;-72
2022/08/19 00:30:53;;;;;;;6.00;5.50;;;25.30;99.90;;;;;;4178203;28;20223;-72
2022/08/19 00:32:56;;;;;;;5.85;5.35;;;25.40;99.90;;;;;;4179151;28;20617;-72
2022/08/19 00:34:59;;;;;;;6.35;5.75;;;25.30;99.90;;;;;;4180039;28;20254;-72
2022/08/19 00:37:02;;;;;;;5.78;5.28;;;25.30;99.90;;;;;;4178639;28;20660;-72
2022/08/19 00:39:05;;;;;;;5.93;5.43;;;25.40;99.90;;;;;;4176181;28;20234;-72
2022/08/19 00:41:08;;;;;;;6.38;5.88;;;25.30;99.90;;;;;;4178859;28;20208;-71
2022/08/19 00:43:12;;;;;;;6.07;5.57;;;25.30;99.90;;;;;;4178375;28;20277;-72
2022/08/19 00:45:18;;;;;;;6.30;5.85;;;25.30;99.90;;;;;;4176032;28;20211;-72
2022/08/19 00:47:21;;;;;;;6.75;6.15;;;25.30;99.90;;;;;;4176825;28;20266;-72
2022/08/19 00:49:28;;;;;;;6.68;6.07;;;25.30;99.90;;;;;;4178061;28;20224;-72
2022/08/19 00:51:34;;;;;;;6.22;5.72;;;25.30;99.90;;;;;;4178081;28;20308;-72
2022/08/19 00:53:36;;;;;;;7.35;6.43;;;25.30;99.90;;;;;;4177661;28;20238;-72
2022/08/19 00:55:40;;;;;;;6.45;5.95;;;25.30;99.90;;;;;;4177542;28;20212;-72
2022/08/19 00:57:54;;;;;;;5.95;5.45;;;25.30;99.90;;;;;;4177745;28;20353;-72
2022/08/19 00:59:58;;;;;;;6.07;5.57;;;25.30;99.90;;;;;;4177961;28;20726;-72
2022/08/19 01:02:01;;;;;;;6.38;5.88;;;25.30;99.90;;;;;;4178087;28;20212;-72
2022/08/19 01:04:03;;;;;;;6.10;5.60;;;25.30;99.90;;;;;;4177514;28;20282;-72
2022/08/19 01:06:06;;;;;;;6.85;6.35;;;25.30;99.90;;;;;;4177896;28;20223;-72
2022/08/19 01:08:10;;;;;;;6.28;5.78;;;25.30;99.90;;;;;;4178004;28;20219;-72
2022/08/19 01:10:18;;;;;;;6.40;5.90;;;25.30;99.90;;;;;;4176607;28;20283;-72
2022/08/19 01:12:21;;;;;;;6.63;6.03;;;25.30;99.90;;;;;;4175273;28;20313;-72
2022/08/19 01:14:25;;;;;;;6.20;5.70;;;25.30;99.90;;;;;;4177924;28;20220;-72
2022/08/19 01:16:29;;;;;;;7.05;6.45;;;25.30;99.90;;;;;;4177390;28;20838;-72
2022/08/19 01:18:36;;;;;;;7.05;6.38;;;25.30;99.90;;;;;;4177733;28;20293;-72
2022/08/19 01:20:39;;;;;;;6.97;6.38;;;25.30;99.90;;;;;;4175199;28;20273;-72
2022/08/19 01:22:45;;;;;;;7.10;6.50;;;25.30;99.90;;;;;;4177534;28;20254;-72
2022/08/19 01:24:47;;;;;;;7.00;6.35;;;25.30;99.90;;;;;;4177327;28;20224;-72
2022/08/19 01:26:50;;;;;;;6.43;5.82;;;25.30;99.90;;;;;;4177578;28;20228;-72
2022/08/19 01:28:55;;;;;;;6.65;6.15;;;25.30;99.90;;;;;;4174092;28;20204;-72
2022/08/19 01:30:59;;;;;;;7.13;6.47;;;25.30;99.90;;;;;;4177541;28;20644;-72
2022/08/19 01:33:04;;;;;;;6.30;5.80;;;25.30;99.90;;;;;;4178706;28;20257;-72
2022/08/19 01:35:08;;;;;;;6.88;6.28;;;25.20;99.90;;;;;;4177187;28;21351;-72
2022/08/19 01:37:12;;;;;;;6.38;5.80;;;25.20;99.90;;;;;;4174290;28;20223;-72
2022/08/19 01:39:19;;;;;;;6.75;6.25;;;25.20;99.90;;;;;;4177438;28;20242;-72
2022/08/19 01:41:23;;;;;;;7.20;6.60;;;25.20;99.90;;;;;;4177338;28;20216;-72
2022/08/19 01:43:26;;;;;;;7.20;6.60;;;25.20;99.90;;;;;;4177316;28;21624;-72
2022/08/19 01:45:31;;;;;;;7.10;6.50;;;25.20;99.90;;;;;;4175431;28;20220;-72
2022/08/19 01:47:34;;;;;;;6.85;6.22;;;25.20;99.90;;;;;;4177060;28;20215;-72
2022/08/19 01:49:38;;;;;;;7.60;7.00;;;25.20;99.90;;;;;;4177204;28;20211;-72
2022/08/19 01:51:40;;;;;;;6.50;6.00;;;25.20;99.90;;;;;;4177108;28;20761;-72
2022/08/19 01:53:42;;;;;;;6.45;5.95;;;25.20;99.90;;;;;;4176428;28;20215;-72
2022/08/19 01:55:47;;;;;;;7.00;6.50;;;25.20;99.90;;;;;;4176913;28;20208;-72
2022/08/19 01:57:52;;;;;;;6.78;6.25;;;25.20;99.90;;;;;;4176946;28;20211;-72
2022/08/19 01:59:54;;;;;;;7.38;6.68;;;25.10;99.90;;;;;;4177244;28;20216;-72
2022/08/19 02:01:57;;;;;;;7.07;6.47;;;25.20;99.90;;;;;;4176951;28;20270;-72
2022/08/19 02:04:00;;;;;;;7.25;6.65;;;25.10;99.90;;;;;;4173697;28;20642;-72
2022/08/19 02:06:04;;;;;;;6.82;6.32;;;25.20;99.90;;;;;;4176769;28;20273;-72
2022/08/19 02:08:08;;;;;;;7.30;6.70;;;25.20;99.90;;;;;;4176549;28;20254;-72
2022/08/19 02:10:14;;;;;;;6.60;6.10;;;25.20;99.90;;;;;;4171031;28;20216;-72
2022/08/19 02:12:18;;;;;;;6.97;6.43;;;25.10;99.90;;;;;;4176585;28;20247;-72
2022/08/19 02:14:20;;;;;;;7.10;6.53;;;25.10;99.90;;;;;;4174832;28;20660;-72
2022/08/19 02:16:23;;;;;;;7.18;6.57;;;25.10;99.90;;;;;;4174991;28;20888;-72
2022/08/19 02:18:26;;;;;;;6.95;6.28;;;25.10;99.90;;;;;;4176700;28;20281;-72
2022/08/19 02:20:28;;;;;;;6.80;6.22;;;25.10;99.90;;;;;;4174268;28;20254;-72
2022/08/19 02:22:30;;;;;;;6.78;6.18;;;25.10;99.90;;;;;;4175593;28;20220;-72
2022/08/19 02:24:33;;;;;;;7.03;6.43;;;25.10;99.90;;;;;;4176301;28;20220;-72
2022/08/19 02:26:36;;;;;;;7.18;6.57;;;25.10;99.90;;;;;;4176407;28;20231;-72
2022/08/19 02:28:39;;;;;;;7.10;6.50;;;25.10;99.90;;;;;;4176343;28;20379;-72
2022/08/19 02:30:43;;;;;;;7.20;6.57;;;25.10;99.90;;;;;;4175730;28;20266;-72
2022/08/19 02:32:45;;;;;;;7.03;6.43;;;25.10;99.90;;;;;;4176430;28;20269;-72
2022/08/19 02:34:48;;;;;;;7.05;6.43;;;25.10;99.90;;;;;;4176010;28;20211;-72
2022/08/19 02:36:50;;;;;;;6.82;6.32;;;25.10;99.90;;;;;;4175472;28;20635;-72
2022/08/19 02:38:51;;;;;;;7.43;6.75;;;25.10;99.90;;;;;;4176335;28;20219;-72
2022/08/19 02:40:56;;;;;;;6.68;6.18;;;25.10;99.90;;;;;;4176670;28;20208;-72
2022/08/19 02:42:58;;;;;;;7.15;6.65;;;25.10;99.90;;;;;;4175350;28;20265;-72
2022/08/19 02:45:02;;;;;;;6.80;6.30;;;25.10;99.90;;;;;;4176244;28;20270;-72
2022/08/19 02:47:05;;;;;;;7.28;6.68;;;25.10;99.90;;;;;;4176118;28;20623;-72
2022/08/19 02:49:08;;;;;;;7.72;7.03;;;25.00;99.90;;;;;;4176060;28;20265;-72
2022/08/19 02:51:17;;;;;;;6.85;6.25;;;25.00;99.90;;;;;;4176021;28;20301;-72
2022/08/19 02:53:21;;;;;;;7.00;6.40;;;25.00;99.90;;;;;;4175958;28;20215;-72
2022/08/19 02:55:24;;;;;;;7.43;6.82;;;25.00;99.90;;;;;;4174420;28;20672;-72
2022/08/19 02:57:26;;;;;;;7.20;6.60;;;25.00;99.90;;;;;;4176974;28;20223;-72
2022/08/19 02:59:31;;;;;;;7.47;6.78;;;25.00;99.90;;;;;;4177523;28;20685;-72
2022/08/19 03:01:35;;;;;;;7.03;6.30;;;25.00;99.90;;;;;;4177206;28;20216;-72
2022/08/19 03:03:38;;;;;;;7.03;6.35;;;25.00;99.90;;;;;;4177512;28;20273;-72
2022/08/19 03:05:41;;;;;;;7.05;6.55;;;25.00;99.90;;;;;;4177897;28;20261;-72
2022/08/19 03:07:43;;;;;;;7.22;6.53;;;25.00;99.90;;;;;;4177531;28;20215;-72
2022/08/19 03:09:46;;;;;;;7.22;6.63;;;25.00;99.90;;;;;;4171573;28;20261;-72
2022/08/19 03:11:48;;;;;;;7.38;6.78;;;25.00;99.90;;;;;;4176401;28;20235;-72
2022/08/19 03:13:51;;;;;;;6.90;6.38;;;25.00;99.90;;;;;;4177371;28;20613;-72
2022/08/19 03:15:53;;;;;;;7.45;6.85;;;25.00;99.90;;;;;;4177547;28;20242;-72
2022/08/19 03:17:57;;;;;;;7.05;6.45;;;25.00;99.90;;;;;;4177738;28;20211;-72
2022/08/19 03:19:59;;;;;;;6.90;6.25;;;25.00;99.90;;;;;;4177283;28;20254;-72
2022/08/19 03:22:02;;;;;;;6.75;6.25;;;24.90;99.90;;;;;;4174805;28;20212;-72
2022/08/19 03:24:07;;;;;;;7.03;6.53;;;24.90;99.90;;;;;;4177011;28;20235;-72
2022/08/19 03:26:09;;;;;;;7.10;6.50;;;25.00;99.90;;;;;;4177182;28;20211;-72
2022/08/19 03:28:14;;;;;;;7.15;6.57;;;24.90;99.90;;;;;;4176620;28;20215;-72
2022/08/19 03:30:16;;;;;;;6.85;6.35;;;24.90;99.90;;;;;;4172551;28;20242;-72
2022/08/19 03:32:19;;;;;;;7.00;6.35;;;24.90;99.90;;;;;;4177184;28;20305;-72
2022/08/19 03:34:26;;;;;;;7.05;6.50;;;24.90;99.90;;;;;;4179733;28;20254;-72
2022/08/19 03:36:28;;;;;;;6.90;6.30;;;24.90;99.90;;;;;;4180686;28;20241;-72
2022/08/19 03:38:32;;;;;;;7.85;7.15;;;24.90;99.90;;;;;;4180739;28;20368;-72
2022/08/19 03:40:37;;;;;;;6.65;6.15;;;24.90;99.90;;;;;;4180458;28;20698;-72
2022/08/19 03:42:41;;;;;;;7.13;6.53;;;24.90;99.90;;;;;;4180031;28;20904;-72
2022/08/19 03:44:44;;;;;;;7.13;6.55;;;24.90;99.90;;;;;;4176605;28;20241;-72
2022/08/19 03:46:48;;;;;;;7.00;6.40;;;24.90;99.90;;;;;;4180005;28;20212;-72
2022/08/19 03:48:53;;;;;;;6.88;6.28;;;24.90;99.90;;;;;;4180111;28;20270;-72
2022/08/19 03:50:58;;;;;;;7.53;6.82;;;24.90;99.90;;;;;;4179887;28;20645;-72
2022/08/19 03:53:00;;;;;;;6.90;6.30;;;24.90;99.90;;;;;;4180306;28;20277;-72
2022/08/19 03:55:03;;;;;;;7.20;6.60;;;24.90;99.90;;;;;;4176587;28;20212;-72
2022/08/19 03:57:07;;;;;;;6.97;6.38;;;24.90;99.90;;;;;;4172630;28;20263;-72
2022/08/19 03:59:13;;;;;;;7.00;6.47;;;24.90;99.90;;;;;;4175638;28;20238;-72
2022/08/19 04:01:17;;;;;;;6.50;6.00;;;24.90;99.90;;;;;;4180102;28;20636;-72
2022/08/19 04:03:20;;;;;;;6.70;6.20;;;24.90;99.90;;;;;;4177690;28;20270;-72
2022/08/19 04:05:22;;;;;;;6.85;6.35;;;24.90;99.90;;;;;;4145388;28;20221;-72
2022/08/19 04:07:25;;;;;;;7.28;6.53;;;24.90;99.90;;;;;;4145968;28;20287;-72
2022/08/19 04:09:28;;;;;;;7.28;6.68;;;24.90;99.90;;;;;;4145896;28;20217;-72
2022/08/19 04:11:34;;;;;;;7.22;6.47;;;24.90;99.90;;;;;;4145853;28;20217;-72
2022/08/19 04:13:36;;;;;;;6.75;6.25;;;24.90;99.90;;;;;;4145920;28;20209;-72
2022/08/19 04:15:41;;;;;;;7.22;6.68;;;24.90;99.90;;;;;;4145929;28;20263;-72
2022/08/19 04:17:43;;;;;;;7.20;6.35;;;24.90;99.90;;;;;;4145511;28;20225;-72
2022/08/19 04:19:46;;;;;;;6.95;6.35;;;24.90;99.90;;;;;;4145283;28;20213;-72
2022/08/19 04:21:51;;;;;;;6.80;6.30;;;24.90;99.90;;;;;;4143956;28;20264;-72
2022/08/19 04:23:56;;;;;;;6.88;6.32;;;24.90;99.90;;;;;;4145759;28;20286;-72
2022/08/19 04:25:58;;;;;;;6.88;6.32;;;24.80;99.90;;;;;;4143647;28;20240;-72
2022/08/19 04:28:01;;;;;;;6.78;6.18;;;24.80;99.90;;;;;;4145541;28;20217;-72
2022/08/19 04:30:04;;;;;;;6.60;6.00;;;24.80;99.90;;;;;;4144876;28;20221;-72
2022/08/19 04:32:19;;;;;;;6.53;6.03;;;24.80;99.90;;;;;;4145965;28;20233;-72
2022/08/19 04:34:23;;;;;;;7.00;6.40;;;24.80;99.90;;;;;;4145863;28;20634;-72
2022/08/19 04:36:29;;;;;;;6.55;5.97;;;24.80;99.90;;;;;;4144218;28;20251;-72
2022/08/19 04:38:31;;;;;;;6.45;5.95;;;24.80;99.90;;;;;;4145700;28;20639;-72
2022/08/19 04:43:00;;;;;;;6.60;6.10;;;24.80;99.90;;;;;;4145514;28;20620;-72
2022/08/19 04:45:03;;;;;;;6.65;6.03;;;24.80;99.90;;;;;;4144945;28;20209;-72
2022/08/19 04:47:06;;;;;;;7.05;6.45;;;24.80;99.90;;;;;;4145153;28;20221;-72
2022/08/19 04:49:09;;;;;;;7.05;6.45;;;24.70;99.90;;;;;;4145279;28;20225;-72
2022/08/19 04:51:13;;;;;;;6.57;6.07;;;24.80;99.90;;;;;;4143772;28;20303;-72
2022/08/19 04:53:15;;;;;;;6.65;6.15;;;24.80;99.90;;;;;;4143485;28;20241;-72
2022/08/19 04:55:18;;;;;;;7.03;6.43;;;24.70;99.90;;;;;;4145285;28;20213;-72
2022/08/19 04:57:22;;;;;;;7.03;6.43;;;24.80;99.90;;;;;;4145379;28;20213;-72
2022/08/19 04:59:24;;;;;;;6.53;5.93;;;24.80;99.90;;;;;;4145403;28;20275;-72
2022/08/19 05:01:29;;;;;;;7.28;6.57;;;24.70;99.90;;;;;;4145043;28;20225;-72
2022/08/19 05:03:33;;;;;;;7.07;6.47;;;24.70;99.90;;;;;;4148145;28;20209;-72
2022/08/19 05:05:40;;;;;;;6.88;6.28;;;24.70;99.90;;;;;;4177547;28;20253;-73
2022/08/19 05:07:42;;;;;;;6.68;6.07;;;24.70;99.90;;;;;;4179095;28;20278;-73
2022/08/19 05:09:44;;;;;;;6.43;5.85;;;24.70;99.90;;;;;;4177151;28;20221;-73
2022/08/19 05:11:47;;;;;;;7.15;6.43;;;24.70;99.90;;;;;;4178830;28;20212;-73
2022/08/19 05:13:51;;;;;;;7.13;6.53;;;24.70;99.90;;;;;;4179220;28;20239;-73
2022/08/19 05:15:58;;;;;;;6.45;5.95;;;24.70;99.90;;;;;;4179326;28;20678;-73
2022/08/19 05:22:47;;;;;;;6.45;5.95;;;24.70;99.90;;;;;;4151004;28;20259;-73
2022/08/19 05:24:49;;;;;;;6.65;5.93;;;24.70;99.90;;;;;;4174786;28;20207;-73
2022/08/19 05:26:56;;;;;;;6.43;5.75;;;24.70;99.90;;;;;;4177406;28;20660;-73
2022/08/19 05:28:59;;;;;;;6.57;5.97;;;24.70;99.90;;;;;;4177073;28;20271;-73
2022/08/19 05:31:02;;;;;;;6.25;5.75;;;24.70;99.90;;;;;;4178242;28;20212;-73
2022/08/19 05:33:04;;;;;;;6.28;5.78;;;24.70;99.90;;;;;;4177690;28;20243;-73
2022/08/19 05:35:07;;;;;;;6.60;6.07;;;24.70;99.90;;;;;;4178153;28;20300;-73
2022/08/19 05:37:11;;;;;;;6.43;5.93;;;24.70;99.90;;;;;;4177558;28;20265;-73
2022/08/19 05:39:16;;;;;;;6.60;6.00;;;24.70;99.90;;;;;;4178005;28;20265;-73
2022/08/19 05:41:18;;;;;;;6.97;5.78;;;24.70;99.90;;;;;;4177547;28;20216;-73
2022/08/19 05:43:20;;;;;;;6.57;5.72;;;24.70;99.90;;;;;;4177209;28;20212;-73
2022/08/19 05:45:24;;;;;;;6.47;5.95;;;24.70;99.90;;;;;;4174477;28;20676;-73
2022/08/19 05:47:27;;;;;;;6.53;5.93;;;24.70;99.90;;;;;;4172570;28;21088;-73
2022/08/19 05:49:30;;;;;;;7.13;6.40;;;24.70;99.90;;;;;;4178087;28;20269;-73
2022/08/19 05:51:33;;;;;;;6.30;5.70;;;24.70;99.90;;;;;;4176600;28;20741;-73
2022/08/19 05:53:36;;;;;;;6.40;5.85;;;24.70;99.90;;;;;;4176001;28;20749;-73
2022/08/19 05:55:39;;;;;;;6.18;5.68;;;24.70;99.90;;;;;;4178307;28;20593;-73
2022/08/19 05:57:41;;;;;;;6.50;6.00;;;24.70;99.90;;;;;;4177630;28;20212;-73
2022/08/19 05:59:51;;;;;;;6.53;6.00;;;24.70;99.90;;;;;;4178661;28;20220;-73
2022/08/19 06:01:56;;;;;;;6.40;5.90;;;24.70;99.90;;;;;;4173840;28;20216;-73
2022/08/19 06:03:59;;;;;;;6.55;5.55;;;24.70;99.90;;;;;;4177553;28;20241;-73
2022/08/19 06:06:02;;;;;;;6.65;6.05;;;24.70;99.90;;;;;;4178244;28;20250;-73
2022/08/19 06:08:05;;;;;;;5.78;5.07;;;24.70;99.90;;;;;;4177079;28;20216;-73
2022/08/19 06:10:10;;;;;;;6.18;5.68;;;24.70;99.90;;;;;;4176877;28;20664;-73
2022/08/19 06:12:12;;;;;;;6.50;6.00;;;24.70;99.90;;;;;;4177071;28;20798;-73
2022/08/19 06:14:20;;;;;;;7.07;5.90;;;24.70;99.90;;;;;;4175953;28;20235;-73
2022/08/19 06:16:23;;;;;;;6.45;5.43;;;24.70;99.90;;;;;;4176690;28;20291;-73
2022/08/19 06:18:27;;;;;;;6.60;6.00;;;24.70;99.90;;;;;;4175795;28;20262;-73
2022/08/19 06:20:31;;;;;;;6.25;5.75;;;24.70;99.90;;;;;;4175763;28;20634;-73
2022/08/19 06:22:38;;;;;;;6.50;5.88;;;24.70;99.90;;;;;;4175333;28;20270;-73
2022/08/19 06:24:41;;;;;;;6.20;5.70;;;24.70;99.90;;;;;;4176606;28;20270;-73
2022/08/19 06:26:46;;;;;;;6.55;5.72;;;24.70;99.90;;;;;;4176744;28;20215;-73
2022/08/19 06:28:49;;;;;;;6.30;5.78;;;24.70;99.90;;;;;;4176496;28;20265;-73
2022/08/19 06:30:51;;;;;;;5.90;5.40;;;24.80;99.90;;;;;;4176582;28;20288;-73
2022/08/19 06:32:53;;;;;;;6.25;5.68;;;24.80;99.90;;;;;;4176480;28;20652;-73
2022/08/19 06:34:57;;;;;;;5.88;5.38;;;24.80;99.90;;;;;;4174629;28;20270;-73
2022/08/19 06:37:01;;;;;;;6.60;5.30;;;24.80;99.90;;;;;;4176583;28;20207;-73
2022/08/19 06:39:06;;;;;;;6.50;5.95;;;24.80;99.90;;;;;;4176214;28;20599;-73
2022/08/19 06:41:09;;;;;;;7.38;5.90;;;24.70;99.90;;;;;;4175136;28;20240;-72
2022/08/19 06:43:12;;;;;;;9.50;6.28;;;24.70;99.90;;;;;;4176375;28;20608;-72
2022/08/19 06:45:15;;;;;;;13.23;7.07;;;24.60;99.90;;;;;;4173049;28;20223;-72
2022/08/19 06:47:18;;;;;;;13.25;9.05;;;24.50;99.90;;;;;;4173032;28;21014;-72
2022/08/19 06:49:21;;;;;;;13.85;9.52;;;23.60;99.90;;;;;;4176013;28;20231;-72
2022/08/19 06:51:26;;;;;;;16.58;9.43;;;23.00;99.90;;;;;;4171888;28;20250;-72
2022/08/19 06:53:29;;;;;;;15.95;8.98;;;22.70;99.90;;;;;;4169411;28;20297;-72
2022/08/19 06:55:31;;;;;;;14.00;9.05;;;22.20;99.90;;;;;;4170662;28;20219;-72
2022/08/19 06:57:34;;;;;;;15.18;9.15;;;21.90;99.90;;;;;;4176031;28;20208;-72
2022/08/19 06:59:39;;;;;;;16.67;9.25;;;21.90;99.90;;;;;;4176218;28;20630;-72
2022/08/19 07:01:46;;;;;;;16.77;9.85;;;21.80;99.90;;;;;;4175778;28;20297;-72
2022/08/19 07:03:49;;;;;;;14.55;8.65;;;21.80;99.90;;;;;;4170419;28;20264;-73
2022/08/19 07:05:51;;;;;;;16.85;9.63;;;21.70;99.90;;;;;;4176934;28;20211;-73
2022/08/19 07:07:56;;;;;;;15.57;9.35;;;21.80;99.90;;;;;;4169311;28;20213;-73
2022/08/19 07:09:58;;;;;;;17.98;9.30;;;21.80;99.90;;;;;;4174858;28;20311;-73
2022/08/19 07:12:01;;;;;;;17.27;9.13;;;21.80;99.90;;;;;;4171210;28;20208;-73
2022/08/19 07:14:06;;;;;;;15.25;8.88;;;21.90;99.90;;;;;;4171197;28;20240;-73
2022/08/19 07:16:09;;;;;;;12.80;9.00;;;21.80;99.90;;;;;;4174055;28;20216;-73
2022/08/19 07:18:12;;;;;;;15.73;9.35;;;21.70;99.90;;;;;;4172459;28;20625;-73
2022/08/19 07:20:14;;;;;;;14.48;9.15;;;21.60;99.90;;;;;;4173277;28;20216;-73
2022/08/19 07:22:17;;;;;;;12.75;8.43;;;21.40;99.90;;;;;;4173259;28;20745;-73
2022/08/19 07:24:23;;;;;;;12.77;8.82;;;21.60;99.90;;;;;;4175026;28;20220;-74
2022/08/19 07:26:28;;;;;;;13.75;8.98;;;21.80;99.90;;;;;;4173127;28;20215;-73
2022/08/19 07:28:30;;;;;;;15.15;9.10;;;21.70;99.90;;;;;;4174686;28;20641;-74
2022/08/19 07:30:33;;;;;;;12.35;7.78;;;21.60;99.90;;;;;;4175697;28;20293;-75
2022/08/19 07:32:35;;;;;;;13.57;8.68;;;21.70;99.90;;;;;;4173505;28;20278;-74
2022/08/19 07:34:37;;;;;;;11.90;8.07;;;21.70;99.90;;;;;;4165151;28;20692;-74
2022/08/19 07:36:41;;;;;;;10.63;7.00;;;21.50;99.90;;;;;;4171260;28;20595;-73
2022/08/19 07:38:47;;;;;;;11.15;7.45;;;21.50;99.90;;;;;;4175449;28;20277;-73
2022/08/19 07:40:51;;;;;;;12.75;7.35;;;21.60;99.90;;;;;;4171292;28;20268;-73
2022/08/19 07:42:53;;;;;;;10.43;6.70;;;21.70;99.90;;;;;;4169157;28;20216;-72
2022/08/19 07:44:55;;;;;;;12.25;7.13;;;21.80;99.90;;;;;;4171684;28;20277;-73
2022/08/19 07:46:59;;;;;;;12.00;6.57;;;21.70;99.90;;;;;;4169887;28;20216;-73
2022/08/19 07:49:03;;;;;;;12.93;6.78;;;21.50;99.90;;;;;;4169910;28;20211;-73
2022/08/19 07:51:08;;;;;;;12.75;7.25;;;21.60;99.90;;;;;;4173543;28;20261;-73
2022/08/19 07:53:11;;;;;;;13.48;6.78;;;21.80;99.90;;;;;;4173872;28;20270;-73
2022/08/19 07:55:15;;;;;;;8.05;6.35;;;21.80;99.90;;;;;;4169997;28;20257;-72
2022/08/19 07:57:19;;;;;;;12.82;7.25;;;21.90;99.90;;;;;;4167521;28;20259;-73
2022/08/19 07:59:22;;;;;;;15.85;6.85;;;21.90;99.90;;;;;;4171190;28;20370;-72
2022/08/19 08:01:28;;;;;;;13.93;6.75;;;21.80;99.90;;;;;;4168523;28;20254;-73
2022/08/19 08:10:38;;;;;;;14.77;7.25;;;21.80;99.90;;;;;;4170141;28;21003;-70
2022/08/19 08:12:41;;;;;;;14.15;6.88;;;22.00;99.90;;;;;;4173513;28;20216;-72
2022/08/19 08:14:47;;;;;;;14.50;7.10;;;22.10;99.90;;;;;;4169958;28;20239;-71
2022/08/19 08:16:51;;;;;;;13.57;7.53;;;22.20;99.90;;;;;;4165547;28;20282;-71
2022/08/19 08:18:53;;;;;;;10.40;6.25;;;22.20;99.90;;;;;;4167881;28;20228;-72
2022/08/19 08:20:56;;;;;;;9.32;6.45;;;22.20;99.90;;;;;;4176493;28;20277;-71
2022/08/19 08:25:20;;;;;;;11.10;6.70;;;22.30;99.90;;;;;;4171867;28;20199;-72
2022/08/19 08:27:22;;;;;;;9.45;6.88;;;22.30;99.90;;;;;;4177227;28;20621;-73
2022/08/19 08:29:27;;;;;;;9.82;6.50;;;22.20;99.90;;;;;;4169125;28;20216;-72
2022/08/19 08:31:29;;;;;;;9.85;6.30;;;22.00;99.90;;;;;;4172189;28;20216;-72
2022/08/19 08:33:31;;;;;;;8.90;6.00;;;22.10;99.90;;;;;;4176603;28;20234;-72
2022/08/19 08:35:34;;;;;;;10.63;6.28;;;22.20;99.90;;;;;;4172352;28;20646;-72
2022/08/19 08:37:36;;;;;;;11.95;6.90;;;22.30;99.90;;;;;;4176813;28;20246;-73
2022/08/19 08:39:39;;;;;;;7.13;5.53;;;22.30;99.90;;;;;;4175326;28;20317;-72
2022/08/19 08:41:50;;;;;;;9.40;6.20;;;22.30;99.90;;;;;;4176401;28;20265;-72
2022/08/19 08:43:54;;;;;;;7.72;5.80;;;22.10;99.90;;;;;;4173767;28;20223;-72
2022/08/19 08:46:03;;;;;;;12.00;6.97;;;22.30;99.90;;;;;;4172047;28;20542;-70
2022/08/19 08:48:15;;;;;;;11.43;6.40;;;22.40;99.90;;;;;;4175785;28;20223;-71
2022/08/19 08:50:23;;;;;;;11.35;6.70;;;22.40;99.90;;;;;;4175871;28;20227;-69
2022/08/19 08:52:29;;;;;;;11.40;6.50;;;22.60;99.90;;;;;;4175453;28;20223;-71
2022/08/19 08:54:36;;;;;;;11.13;6.82;;;22.60;99.90;;;;;;4174551;28;20293;-70
2022/08/19 08:56:39;;;;;;;10.25;6.30;;;22.60;99.90;;;;;;4176493;28;20277;-70
2022/08/19 08:58:50;;;;;;;10.85;6.70;;;22.50;99.90;;;;;;4172201;28;20242;-71
2022/08/19 09:00:52;;;;;;;9.10;6.07;;;22.50;99.90;;;;;;4172082;28;20215;-71
2022/08/19 09:02:58;;;;;;;10.77;6.50;;;22.40;99.90;;;;;;4181203;28;20211;-71
2022/08/19 09:05:00;;;;;;;11.25;6.40;;;22.20;99.90;;;;;;4173359;28;20236;-71
2022/08/19 09:07:26;;;;;;;7.65;6.13;;;22.30;99.90;;;;;;4174194;28;20294;-71
2022/08/19 09:09:34;;;;;;;10.38;5.78;;;22.30;99.90;;;;;;4175527;28;20261;-70
2022/08/19 09:11:46;;;;;;;9.48;6.38;;;22.40;99.90;;;;;;4175749;28;20765;-71
2022/08/19 09:14:03;;;;;;;10.27;5.97;;;22.50;99.90;;;;;;4176294;28;20247;-70
2022/08/19 09:16:10;;;;;;;9.55;6.22;;;22.50;99.90;;;;;;4171726;28;20243;-70
2022/08/19 09:18:15;;;;;;;9.90;6.93;;;22.40;99.90;;;;;;4175854;28;20235;-70
2022/08/19 09:20:20;;;;;;;6.90;5.65;;;22.40;99.90;;;;;;4173004;28;20266;-70
2022/08/19 09:22:23;;;;;;;8.63;5.82;;;22.50;99.90;;;;;;4171116;28;20219;-71
2022/08/19 09:24:25;;;;;;;11.48;6.20;;;22.40;99.90;;;;;;4165921;28;20274;-71
2022/08/19 09:26:28;;;;;;;10.70;6.20;;;22.40;99.90;;;;;;4170120;28;20220;-72
2022/08/19 09:28:31;;;;;;;8.77;5.80;;;22.60;99.90;;;;;;4176371;28;20253;-72
2022/08/19 09:30:41;;;;;;;9.63;6.07;;;22.60;99.90;;;;;;4178557;28;20656;-71
2022/08/19 09:32:45;;;;;;;9.40;6.15;;;22.70;99.90;;;;;;4173651;28;20281;-71
2022/08/19 09:34:48;;;;;;;6.57;5.70;;;22.70;99.90;;;;;;4174627;28;20289;-71
2022/08/19 09:36:52;;;;;;;8.18;5.47;;;22.60;99.90;;;;;;4172271;28;20219;-70
2022/08/19 09:38:56;;;;;;;9.50;5.82;;;22.60;99.90;;;;;;4172527;28;20648;-70
2022/08/19 09:41:04;;;;;;;8.48;5.32;;;22.60;99.90;;;;;;4175197;28;20216;-70
2022/08/19 09:43:07;;;;;;;9.45;5.65;;;22.60;99.90;;;;;;4174082;28;20591;-70
2022/08/19 09:45:10;;;;;;;9.30;6.15;;;22.70;99.90;;;;;;4170496;28;20238;-70
2022/08/19 09:47:14;;;;;;;8.43;5.90;;;22.60;99.90;;;;;;4174036;28;20212;-70
2022/08/19 09:49:16;;;;;;;7.22;5.93;;;22.70;99.90;;;;;;4173458;28;20262;-70
2022/08/19 09:51:22;;;;;;;8.55;6.10;;;22.70;99.90;;;;;;4174840;28;20224;-70
2022/08/19 09:53:24;;;;;;;7.53;5.85;;;22.70;99.90;;;;;;4172724;28;20925;-70
2022/08/19 09:55:27;;;;;;;7.07;5.70;;;22.70;99.90;;;;;;4175953;28;20249;-70
2022/08/19 09:57:29;;;;;;;10.15;5.70;;;22.60;99.90;;;;;;4175677;28;20269;-70
2022/08/19 09:59:32;;;;;;;7.88;5.40;;;22.60;99.90;;;;;;4171005;28;20216;-74
2022/08/19 10:01:37;;;;;;;8.77;5.65;;;22.50;99.90;;;;;;4172345;28;20250;-74
2022/08/19 10:03:40;;;;;;;8.30;5.10;;;22.50;99.90;;;;;;4176836;28;20651;-71
2022/08/19 10:05:48;;;;;;;7.30;4.75;;;22.70;99.90;;;;;;4173695;28;20265;-72
2022/08/19 10:07:52;;;;;;;9.15;5.38;;;22.80;99.90;;;;;;4169828;28;20361;-71
2022/08/19 10:09:54;;;;;;;9.80;5.82;;;23.00;99.90;;;;;;4172790;28;20216;-71
2022/08/19 10:11:56;;;;;;;7.18;5.85;;;23.00;99.90;;;;;;4174079;28;20227;-71
2022/08/19 10:13:59;;;;;;;6.93;5.18;;;22.90;99.90;;;;;;4175190;28;20223;-70
2022/08/19 10:16:06;;;;;;;8.13;5.65;;;22.80;99.90;;;;;;4170182;28;20223;-70
2022/08/19 10:18:09;;;;;;;7.07;4.88;;;22.80;99.90;;;;;;4170958;28;20220;-69
2022/08/19 10:20:11;;;;;;;6.53;5.00;;;22.80;99.90;;;;;;4172725;28;20726;-70
2022/08/19 10:22:14;;;;;;;6.95;4.78;;;22.90;99.90;;;;;;4165890;28;20305;-71
2022/08/19 10:24:19;;;;;;;6.20;4.70;;;22.90;99.90;;;;;;4171573;28;20216;-71
2022/08/19 10:26:25;;;;;;;7.43;5.38;;;22.90;99.90;;;;;;4172001;28;20219;-71
2022/08/19 10:28:27;;;;;;;5.00;4.50;;;23.00;99.90;;;;;;4167811;28;20221;-70
2022/08/19 10:30:29;;;;;;;7.65;5.78;;;23.10;99.90;;;;;;4169412;28;20216;-71
2022/08/19 10:32:32;;;;;;;7.88;5.47;;;23.10;99.90;;;;;;4171616;28;20262;-71
2022/08/19 10:34:35;;;;;;;7.13;5.43;;;22.90;99.90;;;;;;4171718;28;20246;-70
2022/08/19 10:36:38;;;;;;;7.30;5.30;;;22.90;99.90;;;;;;4172588;28;20277;-71
2022/08/19 10:38:40;;;;;;;6.10;5.47;;;22.90;99.90;;;;;;4172687;28;20228;-71
2022/08/19 10:40:44;;;;;;;7.85;6.00;;;23.00;99.90;;;;;;4174879;28;20219;-71
2022/08/19 10:42:46;;;;;;;7.32;5.88;;;22.80;99.90;;;;;;4170762;28;20216;-70
2022/08/19 10:44:49;;;;;;;7.45;5.90;;;22.80;99.90;;;;;;4172151;28;20560;-70
2022/08/19 10:46:52;;;;;;;8.73;5.97;;;22.80;99.90;;;;;;4169871;28;20235;-70
2022/08/19 10:48:55;;;;;;;9.43;6.68;;;22.70;99.90;;;;;;4164748;28;20292;-71
2022/08/19 10:53:19;;;;;;;8.98;6.95;;;22.70;99.90;;;;;;4173562;28;20192;-70
2022/08/19 10:57:44;;;;;;;11.00;6.32;;;22.90;99.90;;;;;;4170293;28;20203;-71
2022/08/19 10:59:47;;;;;;;7.53;6.15;;;22.80;99.90;;;;;;4171621;28;20220;-71
2022/08/19 11:01:51;;;;;;;8.02;5.63;;;22.80;99.90;;;;;;4175469;28;20789;-71
2022/08/19 11:03:53;;;;;;;8.52;6.15;;;23.00;99.90;;;;;;4173938;28;20231;-70